Time;durP1;ratioP1;P1;durP2;ratioP2;P2;SDS_P1;SDS_P2;PMS_P1;PMS_P2;Temp;Humidity;BMP_temperature;BMP_pressure;BME280_temperature;BME280_humidity;BME280_pressure;Samples;Min_cycle;Max_cycle;Signal;HPM_P1;HPM_P2
2023/09/07 00:01:53;;;;;;;3.08;2.78;;;;;;;23.30;78.89;102227.66;6090240;28;20231;-67
2023/09/07 00:05:14;;;;;;;3.97;3.25;;;;;;;23.32;79.27;102228.38;6087405;28;20267;-66
2023/09/07 00:08:35;;;;;;;2.95;2.65;;;;;;;23.30;79.28;102227.66;6086162;28;20730;-66
2023/09/07 00:11:57;;;;;;;3.40;2.88;;;;;;;23.24;79.15;102224.84;6090960;28;20522;-67
2023/09/07 00:15:20;;;;;;;5.60;3.30;;;;;;;23.12;79.21;102220.78;6070772;29;20241;-67
2023/09/07 00:18:41;;;;;;;5.00;4.60;;;;;;;23.10;79.26;102215.47;6089330;28;20591;-67
2023/09/07 00:22:02;;;;;;;5.95;4.43;;;;;;;23.20;79.28;102220.75;6091108;29;20233;-67
2023/09/07 00:25:23;;;;;;;5.90;4.53;;;;;;;23.25;78.98;102224.63;6090131;29;20231;-67
2023/09/07 00:28:46;;;;;;;3.35;3.03;;;;;;;23.09;79.21;102230.28;6092174;28;20243;-67
2023/09/07 00:32:07;;;;;;;3.92;3.60;;;;;;;23.06;79.21;102227.91;6090677;28;20236;-67
2023/09/07 00:35:28;;;;;;;3.53;3.22;;;;;;;23.12;78.94;102227.16;6092411;28;21182;-67
2023/09/07 00:38:51;;;;;;;3.75;3.08;;;;;;;23.10;78.59;102234.75;6082340;28;20314;-67
2023/09/07 00:42:12;;;;;;;3.80;3.47;;;;;;;22.95;78.80;102231.06;6106562;28;20236;-67
2023/09/07 00:45:34;;;;;;;4.10;3.60;;;;;;;22.83;79.73;102235.28;6094410;29;20360;-67
2023/09/07 00:48:56;;;;;;;6.15;3.28;;;;;;;22.88;80.05;102232.88;6089599;28;20235;-67
2023/09/07 00:52:19;;;;;;;4.82;3.20;;;;;;;22.61;80.79;102228.72;6089837;29;20235;-66
2023/09/07 00:55:40;;;;;;;2.97;2.78;;;;;;;22.52;80.98;102232.56;6088007;28;20239;-66
2023/09/07 00:59:02;;;;;;;4.22;3.83;;;;;;;22.51;81.56;102219.81;6079623;28;20232;-66
2023/09/07 01:02:25;;;;;;;2.88;2.50;;;;;;;22.64;81.14;102222.88;6090995;28;20247;-68
2023/09/07 01:05:59;;;;;;;2.90;2.67;;;;;;;22.53;80.80;102219.66;6093177;28;20622;-67
2023/09/07 01:09:24;;;;;;;4.18;3.78;;;;;;;22.41;81.53;102215.59;6105964;28;20294;-67
2023/09/07 01:12:45;;;;;;;2.90;2.70;;;;;;;22.45;81.62;102217.81;6096666;28;20236;-67
2023/09/07 01:16:06;;;;;;;3.20;2.90;;;;;;;22.54;81.59;102213.13;6087222;28;20240;-67
2023/09/07 01:19:28;;;;;;;4.18;3.08;;;;;;;22.47;81.33;102215.72;6091214;28;20499;-67
2023/09/07 01:22:51;;;;;;;2.90;2.70;;;;;;;22.46;81.59;102210.44;6095573;28;20264;-67
2023/09/07 01:26:13;;;;;;;4.57;2.97;;;;;;;22.38;81.44;102215.97;6105420;28;20232;-67
2023/09/07 01:29:34;;;;;;;3.38;3.03;;;;;;;22.34;81.87;102214.63;6092347;28;20239;-67
2023/09/07 01:32:55;;;;;;;3.47;3.17;;;;;;;22.16;81.50;102215.75;6089335;28;20983;-67
2023/09/07 01:36:16;;;;;;;4.00;3.05;;;;;;;22.23;81.85;102215.88;6101554;28;20270;-68
2023/09/07 01:39:38;;;;;;;2.90;2.63;;;;;;;22.13;82.43;102215.25;6079182;28;20760;-69
2023/09/07 01:42:59;;;;;;;3.25;2.70;;;;;;;22.15;82.38;102215.94;6092326;28;20228;-67
2023/09/07 01:46:20;;;;;;;3.17;2.88;;;;;;;22.20;81.99;102224.47;6088709;28;20236;-68
2023/09/07 01:49:41;;;;;;;2.95;2.65;;;;;;;22.17;81.77;102213.84;6092207;28;20288;-67
2023/09/07 01:53:03;;;;;;;4.03;2.90;;;;;;;22.17;81.91;102214.69;6090765;28;20298;-67
2023/09/07 01:56:25;;;;;;;4.13;3.47;;;;;;;22.10;82.21;102219.19;6097884;28;20236;-67
2023/09/07 01:59:48;;;;;;;3.65;2.83;;;;;;;22.21;81.82;102223.44;6110378;28;20239;-67
2023/09/07 02:03:10;;;;;;;3.28;2.95;;;;;;;22.05;82.15;102216.13;6097629;29;20235;-66
2023/09/07 02:06:31;;;;;;;3.33;3.03;;;;;;;22.06;82.04;102227.97;6097130;28;20239;-66
2023/09/07 02:09:52;;;;;;;2.63;2.42;;;;;;;21.96;83.06;102225.44;6097377;28;20306;-67
2023/09/07 02:13:14;;;;;;;5.55;2.95;;;;;;;21.78;82.94;102230.25;6105966;28;20235;-67
2023/09/07 02:16:35;;;;;;;2.47;2.28;;;;;;;22.05;82.74;102232.59;6096267;28;20239;-68
2023/09/07 02:19:57;;;;;;;3.67;3.38;;;;;;;21.88;82.68;102222.69;6100240;28;20251;-68
2023/09/07 02:23:18;;;;;;;3.13;2.90;;;;;;;21.81;83.09;102223.56;6096732;28;20267;-67
2023/09/07 02:26:43;;;;;;;3.83;3.13;;;;;;;21.78;83.50;102229.44;6099567;29;20559;-67
2023/09/07 02:30:07;;;;;;;3.05;2.85;;;;;;;21.81;83.37;102232.66;6109146;28;20568;-69
2023/09/07 02:33:28;;;;;;;3.38;3.08;;;;;;;21.77;83.42;102228.56;6098853;28;20239;-67
2023/09/07 02:36:48;;;;;;;3.33;3.13;;;;;;;21.82;83.43;102237.16;6104755;28;20591;-67
2023/09/07 02:40:11;;;;;;;4.43;3.00;;;;;;;21.71;83.04;102233.91;6096713;28;20236;-67
2023/09/07 02:43:32;;;;;;;3.25;2.83;;;;;;;21.54;83.39;102230.34;6097720;28;20568;-68
2023/09/07 02:46:55;;;;;;;3.50;3.20;;;;;;;21.46;83.83;102236.66;6097870;28;20247;-66
2023/09/07 02:50:17;;;;;;;4.13;3.03;;;;;;;21.35;84.35;102237.06;6098416;29;20626;-67
2023/09/07 02:53:38;;;;;;;3.67;3.38;;;;;;;21.38;84.74;102242.19;6106665;28;20556;-67
2023/09/07 02:56:59;;;;;;;4.03;3.72;;;;;;;21.41;84.60;102238.22;6112524;28;20240;-68
2023/09/07 03:00:20;;;;;;;4.47;3.90;;;;;;;21.28;84.70;102251.63;6106438;28;20306;-67
2023/09/07 03:03:43;;;;;;;3.08;2.88;;;;;;;21.17;85.53;102251.97;6097146;28;20497;-67
2023/09/07 03:07:04;;;;;;;4.30;3.50;;;;;;;21.13;85.46;102261.59;6085886;28;20688;-67
2023/09/07 03:10:25;;;;;;;5.18;3.85;;;;;;;21.10;85.83;102250.94;6103941;28;20236;-67
2023/09/07 03:13:46;;;;;;;3.45;3.15;;;;;;;21.14;85.86;102253.19;6096577;28;20323;-67
2023/09/07 03:17:07;;;;;;;4.22;3.40;;;;;;;21.05;85.86;102248.69;6091592;29;20247;-67
2023/09/07 03:20:30;;;;;;;5.45;3.47;;;;;;;20.95;85.90;102250.72;6093614;28;20248;-67
2023/09/07 03:23:51;;;;;;;4.43;4.03;;;;;;;21.12;86.04;102255.22;6096106;28;20227;-67
2023/09/07 03:27:12;;;;;;;8.88;6.20;;;;;;;21.16;85.46;102251.13;6105140;28;20323;-67
2023/09/07 03:30:34;;;;;;;5.15;3.65;;;;;;;21.24;85.21;102247.50;6100385;28;20236;-67
2023/09/07 03:33:55;;;;;;;5.53;4.35;;;;;;;21.10;85.73;102251.81;6107972;28;20223;-67
2023/09/07 03:37:18;;;;;;;5.93;4.68;;;;;;;21.16;85.83;102256.59;6095678;28;21516;-68
2023/09/07 03:40:38;;;;;;;5.32;4.07;;;;;;;21.11;85.61;102269.13;6104163;28;20610;-68
2023/09/07 03:43:59;;;;;;;5.22;4.05;;;;;;;21.22;85.25;102264.16;6090000;29;20243;-68
2023/09/07 03:47:20;;;;;;;6.95;4.85;;;;;;;21.13;85.42;102272.56;6096852;29;20244;-68
2023/09/07 03:50:41;;;;;;;20.73;18.80;;;;;;;20.95;85.67;102269.06;6097901;28;20239;-67
2023/09/07 03:54:04;;;;;;;8.55;7.75;;;;;;;20.89;86.27;102273.34;6095246;29;20354;-67
2023/09/07 03:57:26;;;;;;;5.47;4.95;;;;;;;20.91;86.40;102273.16;6094431;28;20233;-67
2023/09/07 04:00:47;;;;;;;5.63;5.13;;;;;;;20.86;86.66;102273.66;6094900;28;20236;-67
2023/09/07 04:04:08;;;;;;;4.88;4.47;;;;;;;20.89;86.49;102272.47;6071015;28;20264;-67
2023/09/07 04:07:29;;;;;;;5.13;3.63;;;;;;;20.98;86.36;102275.09;6096954;28;20342;-67
2023/09/07 04:10:51;;;;;;;4.47;3.92;;;;;;;20.89;86.02;102273.34;6101776;28;20605;-68
2023/09/07 04:14:12;;;;;;;4.28;3.88;;;;;;;20.98;85.97;102285.19;6103262;28;20534;-68
2023/09/07 04:17:39;;;;;;;3.80;3.45;;;;;;;20.85;86.20;102276.59;6114099;28;20377;-67
2023/09/07 04:21:08;;;;;;;4.38;3.97;;;;;;;20.75;86.98;102278.63;6117413;28;20564;-68
2023/09/07 04:24:29;;;;;;;5.82;4.63;;;;;;;20.83;86.71;102276.75;6114515;28;20267;-68
2023/09/07 04:27:51;;;;;;;4.93;4.28;;;;;;;20.84;86.49;102277.63;6107582;28;20244;-67
2023/09/07 04:31:12;;;;;;;8.35;6.97;;;;;;;20.79;86.74;102274.53;6102651;28;20236;-67
2023/09/07 04:34:34;;;;;;;7.95;7.10;;;;;;;20.75;87.02;102282.25;6091303;28;20224;-66
2023/09/07 04:37:55;;;;;;;5.68;5.05;;;;;;;20.88;86.52;102287.22;6079460;28;20244;-66
2023/09/07 04:41:16;;;;;;;5.00;4.50;;;;;;;20.77;86.83;102285.66;6096893;28;20232;-66
2023/09/07 04:44:38;;;;;;;4.43;4.05;;;;;;;20.66;86.99;102289.56;6103889;28;20460;-67
2023/09/07 04:47:59;;;;;;;6.97;5.47;;;;;;;20.77;87.09;102282.94;6087047;28;20236;-66
2023/09/07 04:51:22;;;;;;;4.13;3.83;;;;;;;20.75;87.09;102295.94;6095757;28;20685;-67
2023/09/07 04:54:43;;;;;;;4.68;4.28;;;;;;;20.78;87.06;102297.50;6095102;28;20255;-67
2023/09/07 04:58:04;;;;;;;4.50;4.10;;;;;;;20.80;86.92;102296.28;6113404;28;20236;-67
2023/09/07 05:01:27;;;;;;;7.00;4.30;;;;;;;20.95;86.56;102301.97;6094196;28;20526;-67
2023/09/07 05:04:50;;;;;;;4.82;4.43;;;;;;;20.99;86.44;102298.72;6093613;28;21073;-67
2023/09/07 05:08:11;;;;;;;4.22;3.83;;;;;;;20.83;86.54;102304.19;6096816;28;20240;-67
2023/09/07 05:11:34;;;;;;;4.13;3.75;;;;;;;20.94;86.13;102305.75;6082604;28;20243;-67
2023/09/07 05:14:56;;;;;;;7.38;4.22;;;;;;;20.99;86.21;102304.19;6092104;28;20786;-68
2023/09/07 05:18:19;;;;;;;4.00;3.70;;;;;;;20.98;86.06;102308.00;6075965;28;20244;-67
2023/09/07 05:21:39;;;;;;;5.35;4.22;;;;;;;21.03;85.74;102307.50;6077405;28;20243;-67
2023/09/07 05:25:01;;;;;;;5.30;4.00;;;;;;;21.01;86.27;102313.13;6087664;28;20239;-68
2023/09/07 05:28:23;;;;;;;4.53;4.13;;;;;;;21.03;85.90;102313.84;6082835;28;20244;-67
2023/09/07 05:31:46;;;;;;;5.07;4.28;;;;;;;21.10;85.51;102306.66;6092146;28;20236;-68
2023/09/07 05:35:10;;;;;;;4.82;4.43;;;;;;;21.00;85.84;102313.28;6105288;28;20255;-66
2023/09/07 05:38:31;;;;;;;4.88;4.30;;;;;;;21.25;84.91;102318.69;6083669;28;21834;-67
2023/09/07 05:41:52;;;;;;;9.52;4.75;;;;;;;21.28;84.86;102314.72;6092641;28;20243;-66
2023/09/07 05:45:13;;;;;;;5.65;3.78;;;;;;;21.27;84.58;102321.25;6091758;28;20578;-66
2023/09/07 05:48:34;;;;;;;8.50;5.00;;;;;;;21.19;84.54;102329.47;6096844;28;20244;-68
2023/09/07 05:51:56;;;;;;;4.78;4.03;;;;;;;21.28;84.60;102322.94;6099716;28;20235;-67
2023/09/07 05:55:19;;;;;;;6.13;5.07;;;;;;;21.42;84.31;102322.28;6101776;28;21404;-67
2023/09/07 05:58:40;;;;;;;5.07;4.03;;;;;;;21.48;83.75;102322.47;6091973;28;20227;-68
2023/09/07 06:02:01;;;;;;;4.95;4.45;;;;;;;21.62;82.87;102320.91;6097676;28;20235;-66
2023/09/07 06:05:23;;;;;;;5.40;4.47;;;;;;;21.62;82.47;102323.66;6103756;28;20239;-67
2023/09/07 06:08:46;;;;;;;5.18;4.50;;;;;;;21.69;82.33;102330.16;6109708;28;20244;-68
2023/09/07 06:12:07;;;;;;;7.88;5.07;;;;;;;21.75;81.64;102329.47;6103507;28;20323;-66
2023/09/07 06:15:30;;;;;;;5.72;4.88;;;;;;;21.86;81.51;102331.88;6098418;28;20235;-68
2023/09/07 06:18:52;;;;;;;5.55;4.18;;;;;;;22.14;80.51;102338.69;6105150;29;20247;-65
2023/09/07 06:22:13;;;;;;;5.15;4.60;;;;;;;22.23;79.52;102339.53;6120087;28;20314;-67
2023/09/07 06:25:35;;;;;;;5.78;5.22;;;;;;;22.20;79.38;102338.00;6106124;28;20235;-68
2023/09/07 06:28:56;;;;;;;5.95;4.95;;;;;;;22.29;79.37;102341.56;6111093;28;20244;-65
2023/09/07 06:32:18;;;;;;;17.27;15.77;;;;;;;22.17;79.52;102334.75;6097708;28;20232;-66
2023/09/07 06:35:40;;;;;;;7.75;6.85;;;;;;;22.31;79.29;102342.25;6114828;28;20626;-67
2023/09/07 06:39:00;;;;;;;4.75;4.35;;;;;;;22.52;78.82;102339.78;6108311;28;20240;-67
2023/09/07 06:42:23;;;;;;;5.93;5.28;;;;;;;22.27;78.94;102336.25;6106926;28;20314;-67
2023/09/07 06:45:54;;;;;;;4.60;4.13;;;;;;;22.37;78.92;102337.94;6101336;28;20243;-68
2023/09/07 06:49:15;;;;;;;7.55;6.20;;;;;;;22.65;78.42;102340.09;6125208;28;20236;-67
2023/09/07 06:52:36;;;;;;;6.43;5.72;;;;;;;22.42;77.77;102343.75;6119047;28;20239;-68
2023/09/07 06:56:01;;;;;;;7.18;6.47;;;;;;;22.51;78.05;102342.72;6100509;28;20236;-68
2023/09/07 06:59:23;;;;;;;5.15;4.75;;;;;;;22.78;77.44;102345.84;6100825;28;20231;-67
2023/09/07 07:02:44;;;;;;;4.90;4.28;;;;;;;22.65;77.73;102350.22;6093345;28;20236;-66
2023/09/07 07:06:06;;;;;;;5.45;4.95;;;;;;;22.88;77.23;102346.47;6109306;28;20236;-67
2023/09/07 07:09:27;;;;;;;7.63;6.90;;;;;;;23.03;76.05;102346.56;6113077;28;20258;-69
2023/09/07 07:12:49;;;;;;;5.43;4.93;;;;;;;22.99;75.77;102346.06;6113139;28;20633;-68
2023/09/07 07:16:11;;;;;;;6.75;6.15;;;;;;;23.10;75.16;102344.81;6100406;28;20260;-67
2023/09/07 07:19:32;;;;;;;8.82;7.93;;;;;;;23.14;75.03;102354.41;6099398;28;20236;-67
2023/09/07 07:22:55;;;;;;;5.75;4.60;;;;;;;23.27;74.53;102348.31;6115064;28;20251;-66
2023/09/07 07:26:17;;;;;;;3.97;3.50;;;;;;;23.64;73.17;102356.63;6103864;28;20991;-68
2023/09/07 07:29:38;;;;;;;4.55;4.15;;;;;;;23.68;72.37;102361.59;6118570;28;20240;-69
2023/09/07 07:33:01;;;;;;;3.97;3.65;;;;;;;23.79;72.09;102360.28;6118883;28;20232;-67
2023/09/07 07:36:23;;;;;;;8.15;4.18;;;;;;;23.64;72.79;102363.00;6101108;28;20246;-68
2023/09/07 07:39:44;;;;;;;4.70;3.63;;;;;;;23.98;71.92;102359.75;6100957;28;20244;-68
2023/09/07 07:43:07;;;;;;;6.13;3.97;;;;;;;24.00;71.28;102354.91;6098460;28;20244;-68
2023/09/07 07:46:28;;;;;;;4.65;4.25;;;;;;;23.91;71.63;102353.28;6097349;28;20236;-67
2023/09/07 07:49:51;;;;;;;6.05;4.40;;;;;;;23.93;71.15;102361.38;6112043;28;20239;-68
2023/09/07 07:53:12;;;;;;;6.32;3.28;;;;;;;24.09;70.80;102356.59;6093943;28;20331;-69
2023/09/07 07:56:33;;;;;;;4.18;3.78;;;;;;;24.31;70.32;102349.25;6090940;28;20244;-69
2023/09/07 07:59:54;;;;;;;4.38;3.97;;;;;;;24.42;69.37;102357.94;6099115;28;20242;-69
2023/09/07 08:03:15;;;;;;;5.47;4.10;;;;;;;24.57;69.18;102364.28;6101480;28;20239;-69
2023/09/07 08:06:38;;;;;;;4.20;3.70;;;;;;;24.77;68.74;102363.72;6114251;28;20248;-69
2023/09/07 08:09:59;;;;;;;3.58;3.28;;;;;;;24.96;67.80;102361.22;6104702;28;20240;-69
2023/09/07 08:13:22;;;;;;;3.85;3.47;;;;;;;25.11;67.54;102362.03;6093782;28;20303;-68
2023/09/07 08:16:43;;;;;;;5.40;4.32;;;;;;;25.28;67.35;102362.66;6107531;28;20270;-68
2023/09/07 08:20:08;;;;;;;5.65;3.55;;;;;;;25.16;67.08;102354.00;6098324;28;20243;-70
2023/09/07 08:23:31;;;;;;;3.88;3.47;;;;;;;25.29;66.66;102351.41;6099548;29;20240;-69
2023/09/07 08:26:54;;;;;;;4.47;4.07;;;;;;;25.28;66.63;102351.59;6090697;29;20285;-70
2023/09/07 08:30:18;;;;;;;3.63;3.33;;;;;;;25.52;66.42;102351.22;6095705;28;20259;-70
2023/09/07 08:33:40;;;;;;;3.47;3.25;;;;;;;25.64;65.86;102340.50;6103622;28;20238;-70
2023/09/07 08:37:00;;;;;;;4.40;4.00;;;;;;;25.80;65.44;102342.97;6102769;28;20239;-69
2023/09/07 08:40:24;;;;;;;4.65;3.75;;;;;;;25.81;64.87;102344.66;6108107;28;20236;-69
2023/09/07 08:43:47;;;;;;;3.85;3.55;;;;;;;25.86;64.38;102345.81;6105465;29;20237;-69
2023/09/07 08:47:09;;;;;;;3.50;3.20;;;;;;;26.00;64.31;102355.03;6102907;28;20235;-69
2023/09/07 08:50:31;;;;;;;6.20;4.60;;;;;;;25.69;63.69;102355.44;6107222;28;20243;-71
2023/09/07 08:53:52;;;;;;;6.53;2.88;;;;;;;25.90;64.51;102351.78;6108143;28;20244;-70
2023/09/07 08:57:16;;;;;;;3.83;3.35;;;;;;;26.14;63.71;102346.66;6092288;28;20236;-69
2023/09/07 09:00:38;;;;;;;4.07;3.70;;;;;;;26.35;63.59;102350.44;6099834;28;20273;-66
2023/09/07 09:04:00;;;;;;;5.30;4.20;;;;;;;26.31;62.98;102343.56;6096389;28;21100;-66
2023/09/07 09:07:21;;;;;;;6.25;3.83;;;;;;;26.37;61.90;102342.78;6083125;28;20581;-65
2023/09/07 09:10:42;;;;;;;7.03;4.20;;;;;;;26.23;61.20;102346.50;6101833;28;20247;-66
2023/09/07 09:14:06;;;;;;;4.43;3.60;;;;;;;26.35;61.48;102342.97;6093703;28;20259;-66
2023/09/07 09:17:27;;;;;;;4.68;4.07;;;;;;;26.44;61.27;102335.34;6091261;28;20224;-65
2023/09/07 09:20:49;;;;;;;4.22;3.83;;;;;;;26.39;61.25;102340.66;6100177;28;20240;-66
2023/09/07 09:24:11;;;;;;;4.32;4.00;;;;;;;26.72;61.03;102342.53;6083909;28;20247;-66
2023/09/07 09:27:33;;;;;;;4.85;4.07;;;;;;;26.83;60.15;102336.41;6102457;28;20483;-67
2023/09/07 09:30:56;;;;;;;5.05;4.38;;;;;;;26.73;60.46;102344.25;6105076;28;20606;-66
2023/09/07 09:34:16;;;;;;;4.70;4.25;;;;;;;26.98;60.13;102346.47;6102474;28;20330;-66
2023/09/07 09:37:48;;;;;;;6.57;3.85;;;;;;;26.99;58.94;102346.28;6108701;28;20529;-66
2023/09/07 09:41:11;;;;;;;7.13;4.78;;;;;;;27.15;59.11;102345.03;6106507;28;20270;-66
2023/09/07 09:44:33;;;;;;;4.95;4.55;;;;;;;27.37;58.77;102344.69;6098464;28;20335;-66
2023/09/07 09:47:56;;;;;;;3.50;3.20;;;;;;;27.22;57.25;102334.84;6088559;28;20236;-67
2023/09/07 09:51:19;;;;;;;4.65;4.28;;;;;;;27.39;57.98;102342.56;6103713;28;20234;-67
2023/09/07 09:54:41;;;;;;;3.80;3.38;;;;;;;27.48;57.29;102334.91;6099487;28;20236;-67
2023/09/07 09:58:02;;;;;;;4.05;3.70;;;;;;;27.55;56.23;102333.00;6092977;28;20570;-67
2023/09/07 10:01:23;;;;;;;4.00;3.65;;;;;;;27.29;54.96;102330.16;6100205;28;20236;-66
2023/09/07 10:04:46;;;;;;;4.53;3.28;;;;;;;27.40;54.31;102324.03;6103968;28;20235;-66
2023/09/07 10:08:13;;;;;;;3.60;3.30;;;;;;;27.78;54.75;102327.88;6104955;28;20240;-66
2023/09/07 10:11:37;;;;;;;4.22;3.53;;;;;;;27.58;53.69;102324.25;6097326;28;20311;-67
2023/09/07 10:14:57;;;;;;;3.30;2.55;;;;;;;27.45;52.82;102327.84;6104649;28;20240;-67
2023/09/07 10:18:19;;;;;;;4.18;3.53;;;;;;;27.52;52.79;102319.53;6101916;28;20848;-66
2023/09/07 10:21:42;;;;;;;4.60;3.42;;;;;;;27.85;52.39;102322.34;6097961;28;20236;-66
2023/09/07 10:25:03;;;;;;;3.58;2.97;;;;;;;27.89;52.29;102306.97;6106460;29;20239;-67
2023/09/07 10:28:25;;;;;;;4.38;3.40;;;;;;;27.76;52.83;102309.75;6095552;28;20378;-66
2023/09/07 10:31:52;;;;;;;7.03;3.33;;;;;;;28.28;52.07;102305.00;6107418;28;20633;-67
2023/09/07 10:35:16;;;;;;;4.07;3.45;;;;;;;28.45;51.72;102306.22;6105818;28;20232;-66
2023/09/07 10:38:39;;;;;;;3.75;3.30;;;;;;;28.46;51.30;102302.38;6117125;28;20231;-67
2023/09/07 10:41:59;;;;;;;3.72;2.92;;;;;;;28.65;51.20;102299.75;6105388;28;20240;-67
2023/09/07 10:45:20;;;;;;;2.88;2.35;;;;;;;29.23;50.30;102293.03;6107833;28;20240;-67
2023/09/07 10:48:41;;;;;;;3.45;3.15;;;;;;;29.88;48.68;102294.44;6106262;28;20239;-67
2023/09/07 10:52:04;;;;;;;3.53;3.30;;;;;;;29.73;47.87;102294.81;6110682;28;20247;-66
2023/09/07 10:55:27;;;;;;;3.08;2.75;;;;;;;30.10;47.45;102292.94;6100271;28;20243;-67
2023/09/07 10:58:51;;;;;;;2.97;2.58;;;;;;;29.52;46.58;102281.25;6099450;28;20239;-67
2023/09/07 11:02:12;;;;;;;2.95;2.53;;;;;;;30.81;46.56;102279.25;6105251;28;20350;-67
2023/09/07 11:05:33;;;;;;;3.05;2.60;;;;;;;31.39;44.14;102283.13;6105782;28;20510;-66
2023/09/07 11:08:54;;;;;;;3.05;2.83;;;;;;;30.73;44.38;102274.84;6101948;28;20322;-66
2023/09/07 11:12:16;;;;;;;2.95;2.65;;;;;;;32.16;42.61;102272.75;6107949;28;20256;-66
2023/09/07 11:15:39;;;;;;;2.65;2.45;;;;;;;35.99;37.22;102271.81;6105667;28;20519;-66
2023/09/07 11:19:04;;;;;;;4.10;3.28;;;;;;;39.33;32.54;102279.88;6118437;28;20228;-66
2023/09/07 11:22:25;;;;;;;2.65;2.42;;;;;;;40.01;30.84;102275.09;6105950;28;20264;-65
2023/09/07 11:25:48;;;;;;;3.05;2.63;;;;;;;39.92;31.11;102282.47;6106735;28;20322;-66
2023/09/07 11:29:10;;;;;;;2.88;2.67;;;;;;;40.36;30.50;102263.34;6096470;28;20243;-66
2023/09/07 11:32:35;;;;;;;2.22;2.10;;;;;;;40.26;30.78;102263.47;6099967;28;21169;-66
2023/09/07 11:35:56;;;;;;;4.13;2.83;;;;;;;39.74;30.81;102255.00;6106306;28;20236;-66
2023/09/07 11:39:17;;;;;;;2.30;2.03;;;;;;;39.20;30.39;102251.50;6103416;28;20240;-66
2023/09/07 11:42:38;;;;;;;2.70;2.47;;;;;;;40.62;30.17;102264.72;6099045;28;20243;-66
2023/09/07 11:46:00;;;;;;;2.95;2.35;;;;;;;41.62;28.51;102255.78;6104712;28;20231;-66
2023/09/07 11:49:23;;;;;;;2.53;2.33;;;;;;;39.59;30.16;102255.13;6104693;28;20235;-67
2023/09/07 11:52:44;;;;;;;2.42;2.22;;;;;;;41.45;28.72;102249.88;6099191;28;20235;-66
2023/09/07 11:56:05;;;;;;;2.10;2.00;;;;;;;41.29;28.20;102254.13;6102899;28;20470;-67
2023/09/07 11:59:28;;;;;;;3.70;2.17;;;;;;;41.85;28.95;102248.34;6120645;28;20586;-67
2023/09/07 12:02:50;;;;;;;2.20;2.10;;;;;;;40.14;29.24;102248.91;6101213;28;20891;-68
2023/09/07 12:06:11;;;;;;;2.22;2.00;;;;;;;40.01;29.98;102240.31;6105897;28;20243;-67
2023/09/07 12:09:33;;;;;;;2.25;2.08;;;;;;;41.79;28.63;102241.91;6104583;28;20629;-66
2023/09/07 12:12:54;;;;;;;3.58;2.55;;;;;;;42.00;28.44;102231.84;6096397;28;20325;-67
2023/09/07 12:16:14;;;;;;;4.03;2.22;;;;;;;43.26;27.80;102229.06;6099816;28;20565;-66
2023/09/07 12:19:37;;;;;;;3.15;2.85;;;;;;;43.93;27.32;102229.81;6102900;28;20223;-67
2023/09/07 12:22:57;;;;;;;3.75;2.30;;;;;;;44.06;27.03;102233.72;6107526;28;20748;-66
2023/09/07 12:26:20;;;;;;;4.18;3.08;;;;;;;44.37;26.49;102221.13;6109998;28;20236;-67
2023/09/07 12:29:41;;;;;;;3.15;2.60;;;;;;;42.29;27.78;102210.88;6102062;28;20630;-66
2023/09/07 12:33:02;;;;;;;4.88;2.15;;;;;;;43.70;26.84;102218.81;6102279;28;20238;-66
2023/09/07 12:36:24;;;;;;;2.60;2.40;;;;;;;43.31;26.83;102206.16;6105627;28;20235;-68
2023/09/07 12:39:45;;;;;;;2.72;2.53;;;;;;;43.88;25.42;102212.88;6108991;28;20231;-68
2023/09/07 12:43:07;;;;;;;2.38;2.20;;;;;;;44.40;25.18;102211.94;6106249;28;20329;-66
2023/09/07 12:46:27;;;;;;;2.90;2.10;;;;;;;42.96;25.65;102192.03;6101919;28;20243;-66
2023/09/07 12:49:48;;;;;;;3.03;2.13;;;;;;;42.07;25.49;102195.44;6099399;29;20239;-67
2023/09/07 12:53:11;;;;;;;3.42;1.92;;;;;;;42.20;26.92;102181.56;6101521;28;20239;-67
2023/09/07 12:56:32;;;;;;;2.88;2.67;;;;;;;41.60;26.97;102175.91;6093977;28;20240;-67
2023/09/07 12:59:53;;;;;;;3.25;2.50;;;;;;;42.27;27.10;102171.44;6099459;28;20240;-67
2023/09/07 13:03:14;;;;;;;2.40;2.20;;;;;;;40.87;26.94;102189.13;6088883;28;20239;-65
2023/09/07 13:06:35;;;;;;;2.83;2.47;;;;;;;39.99;28.54;102169.97;6102979;28;20342;-67
2023/09/07 13:09:57;;;;;;;3.70;3.40;;;;;;;40.51;28.36;102169.84;6107290;28;20255;-67
2023/09/07 13:13:18;;;;;;;4.30;3.03;;;;;;;41.28;26.79;102170.31;6106159;28;20268;-67
2023/09/07 13:16:39;;;;;;;3.35;3.05;;;;;;;40.87;27.84;102178.63;6100767;28;20239;-66
2023/09/07 13:20:01;;;;;;;6.95;3.28;;;;;;;41.69;27.14;102154.25;6103293;28;20646;-66
2023/09/07 13:23:21;;;;;;;3.47;2.63;;;;;;;40.96;26.68;102156.97;6102981;28;20247;-65
2023/09/07 13:26:47;;;;;;;3.83;2.85;;;;;;;39.13;28.23;102155.84;6106257;28;20235;-66
2023/09/07 13:30:08;;;;;;;2.92;2.35;;;;;;;39.52;27.52;102141.63;6093331;28;20259;-66
2023/09/07 13:33:29;;;;;;;2.70;2.40;;;;;;;37.67;30.00;102142.53;6096855;28;20265;-66
2023/09/07 13:36:50;;;;;;;2.70;2.50;;;;;;;39.68;28.46;102141.16;6102585;28;20232;-66
2023/09/07 13:40:13;;;;;;;5.43;2.70;;;;;;;40.98;27.58;102139.66;6109278;28;20307;-67
2023/09/07 13:43:41;;;;;;;3.90;2.65;;;;;;;41.30;27.17;102140.53;6099067;28;20263;-66
2023/09/07 13:47:02;;;;;;;2.28;2.08;;;;;;;40.44;27.57;102157.19;6103980;28;20242;-65
2023/09/07 13:50:23;;;;;;;3.25;2.70;;;;;;;39.36;28.21;102146.59;6108120;28;21345;-67
2023/09/07 13:53:44;;;;;;;3.35;2.30;;;;;;;40.90;27.19;102141.22;6107243;28;21064;-67
2023/09/07 13:57:05;;;;;;;6.57;2.80;;;;;;;40.59;27.40;102140.00;6099640;28;20322;-68
2023/09/07 14:00:27;;;;;;;2.13;1.95;;;;;;;40.25;27.53;102139.34;6091052;29;20858;-67
2023/09/07 14:03:48;;;;;;;2.67;2.47;;;;;;;39.69;27.82;102133.53;6103890;28;20866;-66
2023/09/07 14:07:09;;;;;;;3.92;3.05;;;;;;;41.51;27.44;102134.47;6089344;28;20420;-67
2023/09/07 14:10:29;;;;;;;4.38;2.92;;;;;;;41.47;27.03;102131.44;6092960;29;20239;-67
2023/09/07 14:13:51;;;;;;;2.35;2.15;;;;;;;41.26;26.89;102130.97;6097628;28;20235;-67
2023/09/07 14:17:13;;;;;;;2.30;2.15;;;;;;;40.47;27.47;102131.97;6102197;28;20235;-67
2023/09/07 14:20:34;;;;;;;3.63;2.63;;;;;;;39.20;27.93;102122.47;6096793;28;20239;-67
2023/09/07 14:23:55;;;;;;;2.97;2.67;;;;;;;38.71;29.10;102125.41;6090208;28;20794;-67
2023/09/07 14:27:16;;;;;;;2.75;2.55;;;;;;;39.55;29.26;102130.63;6088007;28;20772;-67
2023/09/07 14:30:37;;;;;;;4.75;3.00;;;;;;;39.26;29.36;102121.28;6086917;28;20263;-67
2023/09/07 14:33:59;;;;;;;2.67;2.35;;;;;;;38.96;29.38;102119.56;6083349;28;20232;-65
2023/09/07 14:37:20;;;;;;;3.28;2.13;;;;;;;38.07;29.44;102114.19;6092673;28;20349;-66
2023/09/07 14:40:42;;;;;;;2.50;2.33;;;;;;;36.40;30.82;102109.03;6091594;28;20617;-66
2023/09/07 14:44:04;;;;;;;4.22;2.72;;;;;;;36.29;31.83;102105.34;6093139;28;20319;-66
2023/09/07 14:47:26;;;;;;;3.05;2.58;;;;;;;36.21;32.60;102105.88;6087878;28;20236;-66
2023/09/07 14:50:48;;;;;;;3.33;2.90;;;;;;;36.63;33.49;102108.53;6096485;28;20244;-65
2023/09/07 14:54:09;;;;;;;2.30;2.10;;;;;;;36.06;33.24;102106.69;6095161;28;20240;-65
2023/09/07 14:57:30;;;;;;;3.63;3.33;;;;;;;35.54;33.23;102102.19;6093154;29;20244;-66
2023/09/07 15:00:51;;;;;;;4.13;2.85;;;;;;;35.53;34.33;102101.34;6093193;28;20331;-66
2023/09/07 15:04:12;;;;;;;3.28;2.80;;;;;;;35.35;33.98;102091.41;6101683;28;21790;-66
2023/09/07 15:07:34;;;;;;;6.03;2.60;;;;;;;35.09;33.94;102097.13;6096597;28;20423;-65
2023/09/07 15:10:55;;;;;;;3.20;2.72;;;;;;;35.00;35.00;102093.97;6109821;29;20240;-66
2023/09/07 15:14:16;;;;;;;5.35;2.95;;;;;;;34.49;34.22;102089.00;6103096;28;20311;-65
2023/09/07 15:17:39;;;;;;;3.25;3.05;;;;;;;34.48;34.35;102098.50;6104854;28;20232;-65
2023/09/07 15:20:59;;;;;;;3.10;2.45;;;;;;;34.81;34.47;102087.06;6102210;28;20236;-66
2023/09/07 15:24:22;;;;;;;3.00;2.55;;;;;;;34.71;33.97;102086.13;6107470;28;20236;-66
2023/09/07 15:27:44;;;;;;;3.92;2.78;;;;;;;34.21;33.99;102086.44;6103233;28;20712;-66
2023/09/07 15:31:05;;;;;;;2.67;2.40;;;;;;;34.61;35.14;102081.25;6106002;28;20251;-66
2023/09/07 15:34:26;;;;;;;5.32;2.78;;;;;;;34.72;34.49;102073.78;6098291;28;20359;-67
2023/09/07 15:37:47;;;;;;;3.63;3.30;;;;;;;34.69;34.48;102069.59;6104062;28;20236;-66